Time;durP1;ratioP1;P1;durP2;ratioP2;P2;SDS_P1;SDS_P2;PMS_P1;PMS_P2;Temp;Humidity;BMP_temperature;BMP_pressure;BME280_temperature;BME280_humidity;BME280_pressure;Samples;Min_cycle;Max_cycle;Signal;HPM_P1;HPM_P2
2024/03/09 00:02:11;;;;;;;14.33;13.83;;;;;;;;;;5022916;28;20629;-74
2024/03/09 00:04:39;;;;;;;14.43;13.93;;;;;;;;;;5028453;28;20457;-73
2024/03/09 00:07:11;;;;;;;14.30;13.80;;;;;;;;;;5024702;28;20503;-74
2024/03/09 00:09:38;;;;;;;14.17;13.70;;;;;;;;;;5027451;28;20942;-74
2024/03/09 00:12:10;;;;;;;14.90;14.40;;;;;;;;;;5025549;28;20472;-72
2024/03/09 00:14:38;;;;;;;14.70;14.20;;;;;;;;;;5023391;28;20591;-73
2024/03/09 00:17:09;;;;;;;14.67;14.17;;;;;;;;;;5026555;28;20461;-73
2024/03/09 00:19:39;;;;;;;14.23;13.80;;;;;;;;;;5030659;28;20459;-73
2024/03/09 00:22:11;;;;;;;14.53;14.03;;;;;;;;;;5026628;28;20514;-73
2024/03/09 00:24:42;;;;;;;14.50;14.00;;;;;;;;;;5027729;28;20959;-74
2024/03/09 00:27:11;;;;;;;14.60;14.10;;;;;;;;;;5020721;28;20494;-73
2024/03/09 00:29:39;;;;;;;13.80;13.40;;;;;;;;;;5030564;28;20933;-73
2024/03/09 00:32:06;;;;;;;14.80;14.30;;;;;;;;;;5024609;28;20457;-73
2024/03/09 00:34:33;;;;;;;13.93;13.53;;;;;;;;;;5030601;28;20951;-74
2024/03/09 00:37:02;;;;;;;14.53;14.03;;;;;;;;;;5028157;28;20461;-72
2024/03/09 00:39:31;;;;;;;14.33;13.83;;;;;;;;;;5019476;28;20467;-73
2024/03/09 00:41:59;;;;;;;13.97;13.57;;;;;;;;;;5027143;28;20466;-72
2024/03/09 00:44:26;;;;;;;14.17;13.77;;;;;;;;;;5025763;28;20975;-73
2024/03/09 00:46:53;;;;;;;13.80;13.40;;;;;;;;;;5027948;28;20457;-72
2024/03/09 00:49:21;;;;;;;14.70;14.20;;;;;;;;;;5030146;28;20579;-73
2024/03/09 00:51:48;;;;;;;14.80;14.30;;;;;;;;;;5026711;28;20461;-72
2024/03/09 00:54:15;;;;;;;14.40;13.90;;;;;;;;;;5029351;28;20460;-72
2024/03/09 00:56:44;;;;;;;14.60;14.10;;;;;;;;;;5030259;28;20503;-73
2024/03/09 00:59:13;;;;;;;14.00;13.60;;;;;;;;;;5004473;28;20477;-73
2024/03/09 01:01:42;;;;;;;14.00;13.60;;;;;;;;;;4995855;28;20485;-73
2024/03/09 01:04:10;;;;;;;13.97;13.57;;;;;;;;;;4995984;28;20534;-73
2024/03/09 01:06:38;;;;;;;13.93;13.53;;;;;;;;;;4992090;28;21382;-73
2024/03/09 01:09:06;;;;;;;13.77;13.37;;;;;;;;;;4995265;28;21147;-73
2024/03/09 01:11:34;;;;;;;14.27;13.80;;;;;;;;;;4995184;28;21031;-73
2024/03/09 01:14:03;;;;;;;14.43;13.93;;;;;;;;;;4993872;28;21506;-73
2024/03/09 01:16:30;;;;;;;14.43;13.93;;;;;;;;;;4996176;28;20498;-73
2024/03/09 01:18:58;;;;;;;14.63;14.13;;;;;;;;;;4995731;28;20977;-74
2024/03/09 01:21:29;;;;;;;14.83;14.33;;;;;;;;;;4995245;28;21058;-72
2024/03/09 01:23:57;;;;;;;14.47;13.97;;;;;;;;;;4992979;28;20464;-73
2024/03/09 01:26:27;;;;;;;14.33;13.83;;;;;;;;;;4994372;28;20543;-73
2024/03/09 01:28:54;;;;;;;14.50;14.00;;;;;;;;;;4993824;28;20497;-73
2024/03/09 01:31:27;;;;;;;13.97;13.57;;;;;;;;;;4992796;28;21343;-73
2024/03/09 01:33:54;;;;;;;14.70;14.20;;;;;;;;;;4989211;28;20780;-74
2024/03/09 01:36:22;;;;;;;14.60;14.10;;;;;;;;;;4994535;28;20506;-73
2024/03/09 01:38:53;;;;;;;14.50;14.00;;;;;;;;;;4992927;28;21026;-72
2024/03/09 01:41:22;;;;;;;15.00;14.50;;;;;;;;;;4993742;28;20921;-72
2024/03/09 01:43:49;;;;;;;14.30;13.80;;;;;;;;;;4994096;28;20491;-72
2024/03/09 01:46:17;;;;;;;14.90;14.40;;;;;;;;;;4994924;28;20909;-73
2024/03/09 01:48:49;;;;;;;14.37;13.87;;;;;;;;;;4994015;28;20609;-72
2024/03/09 01:51:17;;;;;;;13.87;13.47;;;;;;;;;;4994573;28;20480;-71
2024/03/09 01:53:46;;;;;;;14.30;13.83;;;;;;;;;;4994399;28;20799;-72
2024/03/09 01:56:14;;;;;;;14.53;14.03;;;;;;;;;;4995293;28;20602;-72
2024/03/09 01:58:42;;;;;;;13.90;13.50;;;;;;;;;;5007487;28;20475;-74
2024/03/09 02:01:21;;;;;;;14.30;13.80;;;;;;;;;;5026364;28;20544;-73
2024/03/09 02:03:53;;;;;;;13.80;13.40;;;;;;;;;;5026842;28;20461;-73
2024/03/09 02:06:23;;;;;;;13.37;12.97;;;;;;;;;;5021403;28;20453;-74
2024/03/09 02:08:51;;;;;;;14.00;13.60;;;;;;;;;;5016161;28;21889;-72
2024/03/09 02:11:18;;;;;;;13.97;13.57;;;;;;;;;;5020984;28;20454;-73
2024/03/09 02:13:46;;;;;;;14.20;13.80;;;;;;;;;;5028812;28;20481;-73
2024/03/09 02:16:15;;;;;;;14.00;13.60;;;;;;;;;;5025176;28;20465;-73
2024/03/09 02:18:45;;;;;;;14.50;14.00;;;;;;;;;;5025615;28;20491;-74
2024/03/09 02:21:14;;;;;;;13.97;13.57;;;;;;;;;;5025198;28;20955;-73
2024/03/09 02:23:45;;;;;;;14.60;14.10;;;;;;;;;;5024711;28;20462;-73
2024/03/09 02:26:15;;;;;;;14.20;13.80;;;;;;;;;;5022524;28;20823;-73
2024/03/09 02:28:52;;;;;;;14.23;13.80;;;;;;;;;;5016593;28;20551;-73
2024/03/09 02:31:19;;;;;;;14.00;13.60;;;;;;;;;;5026568;28;20471;-73
2024/03/09 02:33:51;;;;;;;14.40;13.90;;;;;;;;;;5024997;28;20471;-73
2024/03/09 02:36:23;;;;;;;14.37;13.87;;;;;;;;;;5019055;28;20453;-72
2024/03/09 02:38:50;;;;;;;14.50;14.00;;;;;;;;;;5028535;28;20491;-73
2024/03/09 02:41:19;;;;;;;13.87;13.47;;;;;;;;;;5021606;28;21098;-73
2024/03/09 02:43:47;;;;;;;14.00;13.60;;;;;;;;;;5028154;28;20460;-73
2024/03/09 02:46:15;;;;;;;14.10;13.70;;;;;;;;;;5025617;28;20488;-73
2024/03/09 02:48:44;;;;;;;14.10;13.70;;;;;;;;;;5024151;28;20468;-73
2024/03/09 02:51:12;;;;;;;14.10;13.70;;;;;;;;;;5017977;28;20477;-74
2024/03/09 02:53:39;;;;;;;13.77;13.37;;;;;;;;;;5023794;28;20556;-73
2024/03/09 02:56:07;;;;;;;14.00;13.60;;;;;;;;;;5028057;28;20726;-73
2024/03/09 02:58:37;;;;;;;13.80;13.40;;;;;;;;;;5024251;28;20457;-73
2024/03/09 03:01:07;;;;;;;13.90;13.50;;;;;;;;;;5020077;28;21104;-73
2024/03/09 03:03:46;;;;;;;14.30;13.80;;;;;;;;;;5024219;28;20956;-73
2024/03/09 03:06:14;;;;;;;14.00;13.60;;;;;;;;;;5024981;28;20823;-73
2024/03/09 03:08:45;;;;;;;14.33;13.83;;;;;;;;;;5024301;28;20457;-73
2024/03/09 03:11:14;;;;;;;14.33;13.83;;;;;;;;;;5021986;28;20464;-74
2024/03/09 03:13:45;;;;;;;14.13;13.63;;;;;;;;;;5020078;28;20475;-74
2024/03/09 03:16:25;;;;;;;14.43;13.93;;;;;;;;;;5024952;28;20473;-73
2024/03/09 03:18:52;;;;;;;13.80;13.40;;;;;;;;;;5022721;28;21050;-73
2024/03/09 03:21:20;;;;;;;13.90;13.50;;;;;;;;;;5021779;28;20462;-73
2024/03/09 03:23:48;;;;;;;13.47;13.07;;;;;;;;;;5027954;28;20485;-74
2024/03/09 03:26:15;;;;;;;14.10;13.67;;;;;;;;;;5024983;28;20893;-73
2024/03/09 03:28:45;;;;;;;14.17;13.77;;;;;;;;;;5024434;28;20462;-73
2024/03/09 03:31:13;;;;;;;13.63;13.23;;;;;;;;;;5019028;28;20549;-73
2024/03/09 03:33:41;;;;;;;14.30;13.80;;;;;;;;;;5021680;28;20469;-74
2024/03/09 03:36:08;;;;;;;13.70;13.30;;;;;;;;;;5027775;28;20947;-74
2024/03/09 03:38:36;;;;;;;13.77;13.37;;;;;;;;;;5026969;28;20453;-73
2024/03/09 03:41:03;;;;;;;13.73;13.33;;;;;;;;;;5027944;28;20932;-74
2024/03/09 03:43:33;;;;;;;13.57;13.17;;;;;;;;;;5019304;28;20491;-73
2024/03/09 03:46:02;;;;;;;13.77;13.37;;;;;;;;;;5019818;28;20461;-73
2024/03/09 03:48:30;;;;;;;14.00;13.60;;;;;;;;;;5020609;28;21332;-73
2024/03/09 03:50:57;;;;;;;13.63;13.23;;;;;;;;;;5017952;28;20524;-73
2024/03/09 03:53:24;;;;;;;14.40;13.90;;;;;;;;;;5027161;28;20473;-74
2024/03/09 03:55:51;;;;;;;13.70;13.30;;;;;;;;;;5027550;28;20546;-73
2024/03/09 03:58:19;;;;;;;13.77;13.37;;;;;;;;;;5023988;28;20465;-74
2024/03/09 04:00:47;;;;;;;14.30;13.80;;;;;;;;;;5021459;28;20483;-73
2024/03/09 04:03:16;;;;;;;13.43;13.03;;;;;;;;;;5026102;28;20479;-73
2024/03/09 04:05:44;;;;;;;13.63;13.23;;;;;;;;;;5031003;28;20881;-73
2024/03/09 04:08:12;;;;;;;13.70;13.30;;;;;;;;;;5022708;28;21031;-74
2024/03/09 04:10:39;;;;;;;13.27;12.87;;;;;;;;;;5017906;28;20550;-74
2024/03/09 04:13:06;;;;;;;13.43;13.03;;;;;;;;;;5030732;28;20767;-73
2024/03/09 04:15:33;;;;;;;13.70;13.30;;;;;;;;;;5029427;28;20983;-74
2024/03/09 04:18:02;;;;;;;13.57;13.17;;;;;;;;;;5026619;28;20463;-73
2024/03/09 04:20:33;;;;;;;13.63;13.23;;;;;;;;;;5029566;28;21258;-74
2024/03/09 04:23:03;;;;;;;13.53;13.13;;;;;;;;;;5024291;28;20944;-74
2024/03/09 04:25:32;;;;;;;13.37;12.97;;;;;;;;;;5030907;28;20542;-74
2024/03/09 04:28:00;;;;;;;13.23;12.83;;;;;;;;;;5027412;28;20564;-73
2024/03/09 04:30:27;;;;;;;12.90;12.50;;;;;;;;;;5024984;28;20489;-74
2024/03/09 04:32:56;;;;;;;13.80;13.40;;;;;;;;;;5028624;28;20461;-73
2024/03/09 04:35:24;;;;;;;13.37;12.97;;;;;;;;;;5026872;28;20461;-72
2024/03/09 04:37:54;;;;;;;13.50;13.10;;;;;;;;;;5028378;28;20461;-74
2024/03/09 04:40:21;;;;;;;13.53;13.13;;;;;;;;;;5027029;28;20469;-74
2024/03/09 04:42:48;;;;;;;13.43;13.03;;;;;;;;;;5020943;28;20463;-74
2024/03/09 04:45:18;;;;;;;13.73;13.33;;;;;;;;;;5029278;28;20552;-74
2024/03/09 04:47:46;;;;;;;13.50;13.10;;;;;;;;;;5028624;28;20473;-74
2024/03/09 04:50:17;;;;;;;13.80;13.40;;;;;;;;;;5027979;28;20491;-73
2024/03/09 04:52:47;;;;;;;13.30;12.90;;;;;;;;;;5017778;28;20527;-74
2024/03/09 04:55:16;;;;;;;13.43;13.03;;;;;;;;;;5026984;28;20883;-73
2024/03/09 04:57:43;;;;;;;13.43;13.03;;;;;;;;;;5025721;28;20552;-73
2024/03/09 05:00:14;;;;;;;13.50;13.10;;;;;;;;;;5030478;28;20548;-73
2024/03/09 05:02:42;;;;;;;13.67;13.27;;;;;;;;;;5021471;28;20465;-73
2024/03/09 05:05:09;;;;;;;13.40;13.00;;;;;;;;;;5026601;28;20465;-74
2024/03/09 05:07:37;;;;;;;13.80;13.40;;;;;;;;;;5017589;28;20502;-74
2024/03/09 05:10:05;;;;;;;13.60;13.20;;;;;;;;;;5019551;28;20477;-73
2024/03/09 05:12:33;;;;;;;13.90;13.50;;;;;;;;;;5015818;28;20471;-73
2024/03/09 05:15:01;;;;;;;13.80;13.40;;;;;;;;;;5028543;28;20465;-73
2024/03/09 05:17:29;;;;;;;13.47;13.07;;;;;;;;;;5029286;28;20473;-73
2024/03/09 05:19:57;;;;;;;13.70;13.30;;;;;;;;;;5020140;28;20480;-73
2024/03/09 05:22:25;;;;;;;13.87;13.47;;;;;;;;;;5024471;28;20552;-73
2024/03/09 05:24:52;;;;;;;13.77;13.37;;;;;;;;;;5028780;28;20470;-74
2024/03/09 05:27:19;;;;;;;14.20;13.77;;;;;;;;;;5021640;28;20663;-74
2024/03/09 05:29:48;;;;;;;13.67;13.27;;;;;;;;;;5014624;28;20485;-73
2024/03/09 05:32:18;;;;;;;14.47;13.97;;;;;;;;;;5025021;28;20461;-73
2024/03/09 05:34:45;;;;;;;14.57;14.07;;;;;;;;;;5021713;28;20453;-74
2024/03/09 05:37:12;;;;;;;13.83;13.43;;;;;;;;;;5015637;28;20474;-73
2024/03/09 05:39:39;;;;;;;13.43;13.03;;;;;;;;;;5023398;28;20491;-73
2024/03/09 05:42:07;;;;;;;13.83;13.43;;;;;;;;;;5024762;28;20471;-73
2024/03/09 05:44:34;;;;;;;14.07;13.60;;;;;;;;;;5027219;28;20792;-74
2024/03/09 05:47:03;;;;;;;14.00;13.60;;;;;;;;;;5022999;28;20745;-73
2024/03/09 05:49:30;;;;;;;13.80;13.40;;;;;;;;;;5025566;28;20461;-73
2024/03/09 05:51:58;;;;;;;13.80;13.40;;;;;;;;;;5018864;28;20987;-73
2024/03/09 05:54:25;;;;;;;14.00;13.60;;;;;;;;;;5017339;28;20465;-73
2024/03/09 05:56:52;;;;;;;13.50;13.10;;;;;;;;;;5019926;28;20488;-74
2024/03/09 05:59:19;;;;;;;13.90;13.50;;;;;;;;;;5025021;28;20469;-74
2024/03/09 06:01:46;;;;;;;14.57;14.07;;;;;;;;;;5020107;28;20490;-74
2024/03/09 06:04:15;;;;;;;14.30;13.90;;;;;;;;;;5023751;28;20468;-73
2024/03/09 06:06:43;;;;;;;14.70;14.20;;;;;;;;;;5024989;28;20465;-73
2024/03/09 06:09:13;;;;;;;14.47;13.97;;;;;;;;;;5020641;28;20830;-74
2024/03/09 06:11:42;;;;;;;14.40;13.90;;;;;;;;;;5024937;28;21053;-74
2024/03/09 06:14:10;;;;;;;14.33;13.83;;;;;;;;;;5025579;28;20606;-74
2024/03/09 06:16:38;;;;;;;14.30;13.80;;;;;;;;;;5015576;28;20747;-73
2024/03/09 06:19:05;;;;;;;14.27;13.80;;;;;;;;;;5015768;28;20470;-73
2024/03/09 06:21:33;;;;;;;14.47;13.97;;;;;;;;;;5019351;28;20472;-73
2024/03/09 06:24:01;;;;;;;14.60;14.10;;;;;;;;;;5026686;28;20508;-73
2024/03/09 06:26:28;;;;;;;14.73;14.23;;;;;;;;;;5021750;28;20456;-74
2024/03/09 06:28:56;;;;;;;15.07;14.57;;;;;;;;;;5023355;28;20942;-73
2024/03/09 06:31:23;;;;;;;14.83;14.33;;;;;;;;;;5027581;28;20484;-72
2024/03/09 06:33:51;;;;;;;14.60;14.10;;;;;;;;;;5022966;28;20897;-74
2024/03/09 06:36:19;;;;;;;14.03;13.63;;;;;;;;;;5019453;28;20483;-73
2024/03/09 06:38:48;;;;;;;14.80;14.30;;;;;;;;;;5019371;28;20547;-74
2024/03/09 06:41:15;;;;;;;13.97;13.57;;;;;;;;;;5018157;28;20486;-73
2024/03/09 06:43:42;;;;;;;14.80;14.30;;;;;;;;;;5020852;28;20542;-74
2024/03/09 06:46:10;;;;;;;14.80;14.30;;;;;;;;;;5021786;28;20837;-74
2024/03/09 06:48:38;;;;;;;14.00;13.60;;;;;;;;;;5026516;28;20454;-73
2024/03/09 06:51:06;;;;;;;14.63;14.13;;;;;;;;;;5017886;28;20500;-74
2024/03/09 06:53:33;;;;;;;14.80;14.30;;;;;;;;;;5017769;28;20548;-73
2024/03/09 06:56:03;;;;;;;14.43;13.93;;;;;;;;;;5021928;28;20842;-73
2024/03/09 06:58:30;;;;;;;13.93;13.50;;;;;;;;;;5019886;28;20841;-74
2024/03/09 07:00:58;;;;;;;13.80;13.40;;;;;;;;;;5017354;28;20489;-74
2024/03/09 07:03:25;;;;;;;14.20;13.70;;;;;;;;;;5024731;28;20461;-74
2024/03/09 07:05:52;;;;;;;13.77;13.37;;;;;;;;;;5026421;28;20469;-74
2024/03/09 07:08:21;;;;;;;13.97;13.57;;;;;;;;;;5023726;28;20457;-74
2024/03/09 07:10:48;;;;;;;13.20;12.80;;;;;;;;;;5023127;28;20559;-74
2024/03/09 07:13:18;;;;;;;14.20;13.70;;;;;;;;;;5024315;28;20469;-73
2024/03/09 07:15:47;;;;;;;14.17;13.67;;;;;;;;;;5019749;28;20500;-73
2024/03/09 07:18:15;;;;;;;14.47;13.97;;;;;;;;;;5017433;28;20481;-74
2024/03/09 07:20:43;;;;;;;14.57;14.07;;;;;;;;;;5024590;28;20476;-74
2024/03/09 07:23:12;;;;;;;14.77;14.27;;;;;;;;;;5025033;28;20460;-75
2024/03/09 07:25:40;;;;;;;14.10;13.60;;;;;;;;;;5022244;28;20462;-74
2024/03/09 07:28:08;;;;;;;14.43;13.93;;;;;;;;;;5017200;28;20469;-73
2024/03/09 07:30:37;;;;;;;14.27;13.77;;;;;;;;;;5021624;28;20489;-74
2024/03/09 07:33:06;;;;;;;14.10;13.70;;;;;;;;;;5027184;28;20460;-74
2024/03/09 07:35:34;;;;;;;14.27;13.77;;;;;;;;;;5019588;28;20457;-74
2024/03/09 07:38:01;;;;;;;14.20;13.70;;;;;;;;;;5028127;28;20465;-74
2024/03/09 07:40:31;;;;;;;14.33;13.83;;;;;;;;;;5024208;28;20460;-74
2024/03/09 07:42:58;;;;;;;14.33;13.83;;;;;;;;;;5020411;28;20489;-75
2024/03/09 07:45:26;;;;;;;14.50;14.00;;;;;;;;;;5021468;28;20461;-75
2024/03/09 07:47:54;;;;;;;15.00;14.50;;;;;;;;;;5027677;28;20559;-74
2024/03/09 07:50:22;;;;;;;15.40;14.80;;;;;;;;;;5021633;28;21007;-73
2024/03/09 07:52:50;;;;;;;15.13;14.63;;;;;;;;;;5028032;28;20461;-75
2024/03/09 07:55:18;;;;;;;14.87;14.37;;;;;;;;;;5028758;28;20457;-74
2024/03/09 07:57:45;;;;;;;15.90;15.30;;;;;;;;;;5025223;28;20485;-74
2024/03/09 08:00:17;;;;;;;15.20;14.70;;;;;;;;;;5021680;28;20465;-75
2024/03/09 08:02:46;;;;;;;15.40;14.90;;;;;;;;;;5026197;28;20825;-74
2024/03/09 08:05:15;;;;;;;16.00;15.40;;;;;;;;;;5028183;28;20466;-75
2024/03/09 08:07:43;;;;;;;15.63;15.03;;;;;;;;;;5027315;28;20465;-75
2024/03/09 08:10:13;;;;;;;15.67;15.07;;;;;;;;;;5029464;28;20469;-74
2024/03/09 08:12:41;;;;;;;15.37;14.87;;;;;;;;;;5024100;28;20464;-75
2024/03/09 08:15:08;;;;;;;15.40;14.90;;;;;;;;;;5019783;28;20858;-75
2024/03/09 08:17:36;;;;;;;14.70;14.20;;;;;;;;;;5028592;28;20532;-74
2024/03/09 08:20:06;;;;;;;15.67;15.07;;;;;;;;;;5026193;28;20475;-75
2024/03/09 08:22:36;;;;;;;15.30;14.80;;;;;;;;;;5029039;28;20487;-74
2024/03/09 08:25:06;;;;;;;15.07;14.57;;;;;;;;;;5022845;28;20462;-73
2024/03/09 08:27:33;;;;;;;14.40;13.90;;;;;;;;;;5019165;28;20488;-76
2024/03/09 08:30:03;;;;;;;14.93;14.43;;;;;;;;;;5030068;28;20477;-75
2024/03/09 08:32:30;;;;;;;14.60;14.10;;;;;;;;;;5027586;28;21059;-74
2024/03/09 08:34:57;;;;;;;15.50;15.00;;;;;;;;;;5024621;28;20496;-76
2024/03/09 08:37:25;;;;;;;15.90;15.30;;;;;;;;;;5025616;28;20454;-76
2024/03/09 08:39:53;;;;;;;15.57;15.00;;;;;;;;;;5023565;28;20471;-75
2024/03/09 08:42:21;;;;;;;16.10;15.50;;;;;;;;;;5029600;28;20489;-76
2024/03/09 08:44:48;;;;;;;16.03;15.43;;;;;;;;;;5031116;28;20531;-74
2024/03/09 08:47:16;;;;;;;15.20;14.70;;;;;;;;;;5025658;28;20481;-74
2024/03/09 08:49:43;;;;;;;15.97;15.37;;;;;;;;;;5025252;28;20908;-74
2024/03/09 08:52:13;;;;;;;15.00;14.50;;;;;;;;;;5019361;28;20499;-75
2024/03/09 08:54:42;;;;;;;14.50;14.00;;;;;;;;;;5018963;28;20472;-75
2024/03/09 08:57:12;;;;;;;14.50;14.00;;;;;;;;;;5027194;28;20564;-75
2024/03/09 08:59:42;;;;;;;14.90;14.40;;;;;;;;;;5021757;28;20470;-73
2024/03/09 09:02:09;;;;;;;14.60;14.10;;;;;;;;;;5028037;28;20490;-74
2024/03/09 09:04:36;;;;;;;15.27;14.77;;;;;;;;;;5023923;28;20558;-75
2024/03/09 09:07:04;;;;;;;14.90;14.40;;;;;;;;;;5027021;28;20457;-74
2024/03/09 09:09:31;;;;;;;15.43;14.93;;;;;;;;;;5024543;28;20833;-75
2024/03/09 09:11:59;;;;;;;15.30;14.80;;;;;;;;;;5023642;28;21081;-73
2024/03/09 09:14:28;;;;;;;14.73;14.23;;;;;;;;;;5015648;28;20460;-76
2024/03/09 09:16:55;;;;;;;14.60;14.10;;;;;;;;;;5015559;28;20906;-75
2024/03/09 09:19:22;;;;;;;14.80;14.30;;;;;;;;;;5019198;28;20470;-75
2024/03/09 09:21:51;;;;;;;15.83;15.33;;;;;;;;;;5011182;28;20480;-73
2024/03/09 09:24:19;;;;;;;15.13;14.63;;;;;;;;;;5015010;28;20800;-74
2024/03/09 09:26:46;;;;;;;14.80;14.30;;;;;;;;;;5000401;28;20503;-75
2024/03/09 09:29:14;;;;;;;14.57;14.07;;;;;;;;;;5012986;28;20466;-74
2024/03/09 09:31:42;;;;;;;14.77;14.27;;;;;;;;;;5017410;28;20509;-73
2024/03/09 09:34:12;;;;;;;14.63;14.13;;;;;;;;;;5014575;28;21060;-75
2024/03/09 09:36:40;;;;;;;14.60;14.10;;;;;;;;;;5016866;28;20475;-74
2024/03/09 09:39:13;;;;;;;15.10;14.60;;;;;;;;;;5016061;28;20473;-75
2024/03/09 09:41:41;;;;;;;14.40;13.90;;;;;;;;;;5014313;28;20466;-74
2024/03/09 09:44:11;;;;;;;14.60;14.10;;;;;;;;;;5010759;28;21054;-75
2024/03/09 09:46:38;;;;;;;14.63;14.13;;;;;;;;;;5004680;28;20487;-74
2024/03/09 09:49:08;;;;;;;14.83;14.33;;;;;;;;;;5011958;28;20972;-74
2024/03/09 09:51:37;;;;;;;14.77;14.27;;;;;;;;;;5015016;28;20493;-75
2024/03/09 09:54:05;;;;;;;15.03;14.53;;;;;;;;;;5015920;28;20946;-75
2024/03/09 09:56:33;;;;;;;14.40;13.90;;;;;;;;;;5015185;28;20483;-75
2024/03/09 09:59:01;;;;;;;14.60;14.10;;;;;;;;;;5011064;28;21033;-75
2024/03/09 10:01:28;;;;;;;15.00;14.50;;;;;;;;;;5008116;28;20858;-76
2024/03/09 10:03:55;;;;;;;15.13;14.63;;;;;;;;;;5015703;28;20553;-75
2024/03/09 10:06:25;;;;;;;14.83;14.33;;;;;;;;;;5014986;28;20572;-74
2024/03/09 10:08:53;;;;;;;14.87;14.37;;;;;;;;;;5012073;28;20473;-73
2024/03/09 10:11:22;;;;;;;14.30;13.80;;;;;;;;;;5013195;28;20533;-74
2024/03/09 10:13:52;;;;;;;14.60;14.10;;;;;;;;;;5018368;28;20971;-75
2024/03/09 10:16:27;;;;;;;14.87;14.37;;;;;;;;;;5012751;28;20521;-75
2024/03/09 10:18:54;;;;;;;15.30;14.80;;;;;;;;;;5017410;28;20474;-76
2024/03/09 10:21:28;;;;;;;15.33;14.83;;;;;;;;;;5016694;28;20468;-76
2024/03/09 10:24:02;;;;;;;14.80;14.30;;;;;;;;;;5012988;28;20465;-76
2024/03/09 10:26:29;;;;;;;15.13;14.63;;;;;;;;;;5016790;28;20469;-75
2024/03/09 10:28:58;;;;;;;15.53;15.03;;;;;;;;;;5010288;28;20828;-75
2024/03/09 10:31:26;;;;;;;14.73;14.23;;;;;;;;;;5014703;28;20596;-75
2024/03/09 10:33:53;;;;;;;14.40;13.90;;;;;;;;;;5009843;28;20476;-75
2024/03/09 10:36:22;;;;;;;14.50;14.00;;;;;;;;;;5012805;28;20835;-76
2024/03/09 10:38:54;;;;;;;14.30;13.80;;;;;;;;;;5008158;28;20496;-75
2024/03/09 10:41:23;;;;;;;14.40;13.90;;;;;;;;;;5009455;28;20970;-74
2024/03/09 10:43:50;;;;;;;14.50;14.00;;;;;;;;;;5010618;28;20975;-74
2024/03/09 10:46:20;;;;;;;13.80;13.40;;;;;;;;;;5015135;28;20474;-75
2024/03/09 10:48:51;;;;;;;14.50;14.00;;;;;;;;;;5014682;28;20466;-77
2024/03/09 10:51:20;;;;;;;14.80;14.30;;;;;;;;;;5014997;28;20465;-76
2024/03/09 10:53:55;;;;;;;14.70;14.20;;;;;;;;;;5010512;28;20466;-76
2024/03/09 10:56:23;;;;;;;14.93;14.43;;;;;;;;;;5014089;28;20497;-76
2024/03/09 10:58:52;;;;;;;15.00;14.50;;;;;;;;;;5016160;28;21015;-76
2024/03/09 11:01:21;;;;;;;14.50;14.00;;;;;;;;;;5011773;28;20498;-74
2024/03/09 11:03:50;;;;;;;14.93;14.43;;;;;;;;;;5014706;28;20520;-76
2024/03/09 11:06:18;;;;;;;14.70;14.20;;;;;;;;;;5015111;28;20548;-74
2024/03/09 11:08:46;;;;;;;14.57;14.07;;;;;;;;;;5001794;28;20479;-76
2024/03/09 11:11:15;;;;;;;14.60;14.10;;;;;;;;;;5016671;28;20467;-74
2024/03/09 11:13:44;;;;;;;14.70;14.20;;;;;;;;;;5021072;28;20471;-74
2024/03/09 11:16:14;;;;;;;15.00;14.50;;;;;;;;;;5017635;28;20471;-74
2024/03/09 11:18:44;;;;;;;14.80;14.30;;;;;;;;;;5013895;28;20479;-76
2024/03/09 11:21:23;;;;;;;14.57;14.07;;;;;;;;;;5019901;28;20477;-76
2024/03/09 11:23:52;;;;;;;14.80;14.30;;;;;;;;;;5016997;28;20457;-75
2024/03/09 11:26:23;;;;;;;14.93;14.43;;;;;;;;;;5017022;28;20468;-76
2024/03/09 11:28:52;;;;;;;14.70;14.20;;;;;;;;;;5012415;28;20830;-74
2024/03/09 11:31:26;;;;;;;14.20;13.70;;;;;;;;;;5018386;28;20482;-75
2024/03/09 11:33:53;;;;;;;14.60;14.10;;;;;;;;;;5017420;28;20466;-77
2024/03/09 11:36:40;;;;;;;14.63;14.13;;;;;;;;;;5018709;28;20551;-76
2024/03/09 11:39:07;;;;;;;14.40;13.90;;;;;;;;;;5014388;28;20458;-75
2024/03/09 11:41:38;;;;;;;14.40;13.90;;;;;;;;;;5016139;28;20557;-76
2024/03/09 11:44:05;;;;;;;14.33;13.83;;;;;;;;;;5017835;28;20842;-75
2024/03/09 11:46:35;;;;;;;14.40;13.90;;;;;;;;;;5017803;28;20465;-76
2024/03/09 11:49:04;;;;;;;14.87;14.37;;;;;;;;;;5016494;28;20910;-75
2024/03/09 11:51:33;;;;;;;14.10;13.60;;;;;;;;;;5012018;28;20472;-75
2024/03/09 11:54:02;;;;;;;14.30;13.80;;;;;;;;;;5011389;28;20556;-73
2024/03/09 11:56:30;;;;;;;14.40;13.90;;;;;;;;;;5013419;28;20526;-73
2024/03/09 11:59:00;;;;;;;14.60;14.10;;;;;;;;;;5017308;28;20453;-74
2024/03/09 12:01:27;;;;;;;14.20;13.80;;;;;;;;;;5019982;28;20530;-75
2024/03/09 12:03:58;;;;;;;15.63;15.03;;;;;;;;;;5017002;28;20479;-76
2024/03/09 12:06:26;;;;;;;14.70;14.20;;;;;;;;;;5017077;28;20461;-75
2024/03/09 12:08:53;;;;;;;15.00;14.50;;;;;;;;;;5016765;28;20881;-74
2024/03/09 12:11:21;;;;;;;14.40;13.90;;;;;;;;;;5016244;28;20474;-75
2024/03/09 12:13:49;;;;;;;14.30;13.80;;;;;;;;;;5018615;28;20489;-76
2024/03/09 12:16:18;;;;;;;14.60;14.10;;;;;;;;;;5015717;28;20670;-77
2024/03/09 12:18:47;;;;;;;14.20;13.70;;;;;;;;;;5015872;28;20472;-76
2024/03/09 12:21:15;;;;;;;14.93;14.43;;;;;;;;;;5016038;28;20470;-75
2024/03/09 12:23:44;;;;;;;15.10;14.60;;;;;;;;;;5020152;28;20466;-76
2024/03/09 12:26:13;;;;;;;14.70;14.20;;;;;;;;;;5017485;28;21162;-75
2024/03/09 12:28:43;;;;;;;14.67;14.17;;;;;;;;;;5015012;28;20470;-77
2024/03/09 12:31:11;;;;;;;14.53;14.03;;;;;;;;;;5018259;28;20476;-76
2024/03/09 12:33:40;;;;;;;15.10;14.60;;;;;;;;;;5017419;28;20593;-76
2024/03/09 12:36:17;;;;;;;14.50;14.00;;;;;;;;;;5014579;28;20497;-75
2024/03/09 12:38:44;;;;;;;14.90;14.40;;;;;;;;;;5016132;28;20554;-75
2024/03/09 12:41:25;;;;;;;14.80;14.30;;;;;;;;;;5014396;28;20476;-75
2024/03/09 12:43:55;;;;;;;14.47;13.97;;;;;;;;;;5016704;28;20476;-74
2024/03/09 12:46:26;;;;;;;14.47;13.97;;;;;;;;;;5015321;28;20475;-75
2024/03/09 12:48:59;;;;;;;14.53;14.03;;;;;;;;;;5015830;28;20466;-76
2024/03/09 12:51:28;;;;;;;15.00;14.50;;;;;;;;;;5013915;28;20469;-75
2024/03/09 12:53:57;;;;;;;14.17;13.70;;;;;;;;;;5014278;28;20566;-75
2024/03/09 12:56:29;;;;;;;14.40;13.90;;;;;;;;;;5017141;28;20536;-75
2024/03/09 12:58:59;;;;;;;14.70;14.20;;;;;;;;;;5015234;28;20478;-76
2024/03/09 13:01:27;;;;;;;14.03;13.63;;;;;;;;;;5017983;28;20494;-78
2024/03/09 13:03:57;;;;;;;14.23;13.73;;;;;;;;;;5015686;28;20496;-77
2024/03/09 13:06:24;;;;;;;14.30;13.80;;;;;;;;;;5016376;28;20480;-75
2024/03/09 13:08:52;;;;;;;14.70;14.20;;;;;;;;;;5018617;28;20591;-75
2024/03/09 13:11:20;;;;;;;14.93;14.43;;;;;;;;;;5018362;28;20596;-75
2024/03/09 13:13:48;;;;;;;14.43;13.93;;;;;;;;;;5010555;28;20510;-75
2024/03/09 13:16:16;;;;;;;14.80;14.30;;;;;;;;;;5017713;28;20476;-75
2024/03/09 13:18:44;;;;;;;14.57;14.07;;;;;;;;;;5014882;28;20477;-74
2024/03/09 13:21:15;;;;;;;14.70;14.20;;;;;;;;;;5018652;28;20476;-75
2024/03/09 13:23:44;;;;;;;14.40;13.90;;;;;;;;;;5018098;28;20972;-75
2024/03/09 13:26:14;;;;;;;14.70;14.20;;;;;;;;;;5016383;28;20527;-76
2024/03/09 13:28:43;;;;;;;14.60;14.10;;;;;;;;;;5011587;28;20987;-74
2024/03/09 13:31:11;;;;;;;14.70;14.20;;;;;;;;;;5018180;28;20480;-75
2024/03/09 13:33:45;;;;;;;14.00;13.50;;;;;;;;;;5016503;28;20467;-74
2024/03/09 13:36:16;;;;;;;13.90;13.50;;;;;;;;;;5015783;28;20560;-75
2024/03/09 13:38:47;;;;;;;14.93;14.43;;;;;;;;;;5015378;28;20469;-76
2024/03/09 13:41:15;;;;;;;14.30;13.80;;;;;;;;;;5014920;28;20508;-78
2024/03/09 13:43:45;;;;;;;14.10;13.70;;;;;;;;;;5015495;28;20972;-74
2024/03/09 13:46:13;;;;;;;14.87;14.37;;;;;;;;;;5013300;28;20503;-77
2024/03/09 13:48:42;;;;;;;14.70;14.20;;;;;;;;;;5016260;28;20769;-75
2024/03/09 13:51:12;;;;;;;14.83;14.33;;;;;;;;;;5016508;28;20499;-75
2024/03/09 13:53:42;;;;;;;15.10;14.60;;;;;;;;;;5013350;28;20470;-75
2024/03/09 13:56:14;;;;;;;15.17;14.67;;;;;;;;;;5018196;28;20595;-75
2024/03/09 13:58:42;;;;;;;15.30;14.80;;;;;;;;;;5016292;28;20972;-75
2024/03/09 14:01:13;;;;;;;14.20;13.70;;;;;;;;;;5013204;28;20856;-74
2024/03/09 14:03:44;;;;;;;14.60;14.10;;;;;;;;;;5013330;28;20505;-74
2024/03/09 14:06:16;;;;;;;14.70;14.20;;;;;;;;;;5011979;28;20473;-76
2024/03/09 14:08:44;;;;;;;15.00;14.50;;;;;;;;;;5016374;28;20926;-74
2024/03/09 14:11:11;;;;;;;14.50;14.00;;;;;;;;;;5013579;28;20478;-75
2024/03/09 14:13:39;;;;;;;15.10;14.60;;;;;;;;;;5017336;28;20834;-75
2024/03/09 14:16:08;;;;;;;14.37;13.87;;;;;;;;;;5017810;28;20454;-76
2024/03/09 14:18:36;;;;;;;14.70;14.20;;;;;;;;;;5012221;28;20531;-75
2024/03/09 14:21:06;;;;;;;14.90;14.40;;;;;;;;;;5012195;28;20478;-78
2024/03/09 14:23:37;;;;;;;14.20;13.70;;;;;;;;;;5015180;28;20488;-74
2024/03/09 14:26:11;;;;;;;14.90;14.40;;;;;;;;;;5016768;28;20959;-77